sensor_id;sensor_type;location;lat;lon;timestamp;temperature;humidity
64939;DHT22;51453;47.738;7.420;2023-07-20T00:01:46;21.90;99.90
64939;DHT22;51453;47.738;7.420;2023-07-20T00:04:12;21.90;99.90
64939;DHT22;51453;47.738;7.420;2023-07-20T00:06:38;21.80;99.90
64939;DHT22;51453;47.738;7.420;2023-07-20T00:09:06;21.80;99.90
64939;DHT22;51453;47.738;7.420;2023-07-20T00:11:36;21.70;99.90
64939;DHT22;51453;47.738;7.420;2023-07-20T00:14:03;21.60;99.90
64939;DHT22;51453;47.738;7.420;2023-07-20T00:16:29;21.60;99.90
64939;DHT22;51453;47.738;7.420;2023-07-20T00:18:55;21.60;99.90
64939;DHT22;51453;47.738;7.420;2023-07-20T00:21:20;21.50;99.90
64939;DHT22;51453;47.738;7.420;2023-07-20T00:23:46;21.50;99.90
64939;DHT22;51453;47.738;7.420;2023-07-20T00:26:11;21.50;99.90
64939;DHT22;51453;47.738;7.420;2023-07-20T00:28:37;21.50;99.90
64939;DHT22;51453;47.738;7.420;2023-07-20T00:31:03;21.40;99.90
64939;DHT22;51453;47.738;7.420;2023-07-20T00:33:29;21.40;99.90
64939;DHT22;51453;47.738;7.420;2023-07-20T00:35:55;21.30;99.90
64939;DHT22;51453;47.738;7.420;2023-07-20T00:38:20;21.30;99.90
64939;DHT22;51453;47.738;7.420;2023-07-20T00:40:46;21.20;99.90
64939;DHT22;51453;47.738;7.420;2023-07-20T00:43:12;21.20;99.90
64939;DHT22;51453;47.738;7.420;2023-07-20T00:45:38;21.20;99.90
64939;DHT22;51453;47.738;7.420;2023-07-20T00:48:06;21.20;99.90
64939;DHT22;51453;47.738;7.420;2023-07-20T00:50:32;21.20;99.90
64939;DHT22;51453;47.738;7.420;2023-07-20T00:52:59;21.20;99.90
64939;DHT22;51453;47.738;7.420;2023-07-20T00:55:25;21.10;99.90
64939;DHT22;51453;47.738;7.420;2023-07-20T00:57:52;21.10;99.90
64939;DHT22;51453;47.738;7.420;2023-07-20T01:00:18;21.10;99.90
64939;DHT22;51453;47.738;7.420;2023-07-20T01:02:45;21.00;99.90
64939;DHT22;51453;47.738;7.420;2023-07-20T01:05:11;21.00;99.90
64939;DHT22;51453;47.738;7.420;2023-07-20T01:07:59;21.00;99.90
64939;DHT22;51453;47.738;7.420;2023-07-20T01:10:33;21.00;99.90
64939;DHT22;51453;47.738;7.420;2023-07-20T01:13:01;21.00;99.90
64939;DHT22;51453;47.738;7.420;2023-07-20T01:15:28;21.00;99.90
64939;DHT22;51453;47.738;7.420;2023-07-20T01:17:54;21.00;99.90
64939;DHT22;51453;47.738;7.420;2023-07-20T01:20:21;21.00;99.90
64939;DHT22;51453;47.738;7.420;2023-07-20T01:31:27;20.80;99.90
64939;DHT22;51453;47.738;7.420;2023-07-20T01:33:58;20.90;99.90
64939;DHT22;51453;47.738;7.420;2023-07-20T01:36:29;20.80;99.90
64939;DHT22;51453;47.738;7.420;2023-07-20T01:38:56;20.80;99.90
64939;DHT22;51453;47.738;7.420;2023-07-20T01:41:23;20.80;99.90
64939;DHT22;51453;47.738;7.420;2023-07-20T01:43:48;20.80;99.90
64939;DHT22;51453;47.738;7.420;2023-07-20T01:46:14;20.80;99.90
64939;DHT22;51453;47.738;7.420;2023-07-20T01:48:40;20.80;99.90
64939;DHT22;51453;47.738;7.420;2023-07-20T01:51:06;20.70;99.90
64939;DHT22;51453;47.738;7.420;2023-07-20T01:53:31;20.70;99.90
64939;DHT22;51453;47.738;7.420;2023-07-20T01:55:57;20.70;99.90
64939;DHT22;51453;47.738;7.420;2023-07-20T01:58:23;20.60;99.90
64939;DHT22;51453;47.738;7.420;2023-07-20T02:00:48;20.60;99.90
64939;DHT22;51453;47.738;7.420;2023-07-20T02:03:14;20.60;99.90
64939;DHT22;51453;47.738;7.420;2023-07-20T02:05:42;20.60;99.90
64939;DHT22;51453;47.738;7.420;2023-07-20T02:08:08;20.50;99.90
64939;DHT22;51453;47.738;7.420;2023-07-20T02:10:34;20.50;99.90
64939;DHT22;51453;47.738;7.420;2023-07-20T02:12:59;20.50;99.90
64939;DHT22;51453;47.738;7.420;2023-07-20T02:15:25;20.50;99.90
64939;DHT22;51453;47.738;7.420;2023-07-20T02:17:51;20.50;99.90
64939;DHT22;51453;47.738;7.420;2023-07-20T02:20:16;20.40;99.90
64939;DHT22;51453;47.738;7.420;2023-07-20T02:22:42;20.40;99.90
64939;DHT22;51453;47.738;7.420;2023-07-20T02:25:08;20.40;99.90
64939;DHT22;51453;47.738;7.420;2023-07-20T02:27:34;20.30;99.90
64939;DHT22;51453;47.738;7.420;2023-07-20T02:30:00;20.30;99.90
64939;DHT22;51453;47.738;7.420;2023-07-20T02:32:26;20.30;99.90
64939;DHT22;51453;47.738;7.420;2023-07-20T02:34:52;20.30;99.90
64939;DHT22;51453;47.738;7.420;2023-07-20T02:37:17;20.20;99.90
64939;DHT22;51453;47.738;7.420;2023-07-20T02:39:43;20.20;99.90
64939;DHT22;51453;47.738;7.420;2023-07-20T02:42:09;20.20;99.90
64939;DHT22;51453;47.738;7.420;2023-07-20T02:44:35;20.10;99.90
64939;DHT22;51453;47.738;7.420;2023-07-20T02:47:00;20.10;99.90
64939;DHT22;51453;47.738;7.420;2023-07-20T02:49:27;20.00;99.90
64939;DHT22;51453;47.738;7.420;2023-07-20T02:51:52;20.00;99.90
64939;DHT22;51453;47.738;7.420;2023-07-20T02:54:18;20.00;99.90
64939;DHT22;51453;47.738;7.420;2023-07-20T02:56:44;19.90;99.90
64939;DHT22;51453;47.738;7.420;2023-07-20T02:59:09;19.90;99.90
64939;DHT22;51453;47.738;7.420;2023-07-20T03:01:35;19.90;99.90
64939;DHT22;51453;47.738;7.420;2023-07-20T03:04:01;19.80;99.90
64939;DHT22;51453;47.738;7.420;2023-07-20T03:06:27;19.80;99.90
64939;DHT22;51453;47.738;7.420;2023-07-20T03:08:53;19.70;99.90
64939;DHT22;51453;47.738;7.420;2023-07-20T03:11:19;19.70;99.90
64939;DHT22;51453;47.738;7.420;2023-07-20T03:13:48;19.70;99.90
64939;DHT22;51453;47.738;7.420;2023-07-20T03:16:17;19.60;99.90
64939;DHT22;51453;47.738;7.420;2023-07-20T03:18:43;19.60;99.90
64939;DHT22;51453;47.738;7.420;2023-07-20T03:21:10;19.50;99.90
64939;DHT22;51453;47.738;7.420;2023-07-20T03:23:39;19.50;99.90
64939;DHT22;51453;47.738;7.420;2023-07-20T03:26:05;19.50;99.90
64939;DHT22;51453;47.738;7.420;2023-07-20T03:28:30;19.40;99.90
64939;DHT22;51453;47.738;7.420;2023-07-20T03:30:57;19.40;99.90
64939;DHT22;51453;47.738;7.420;2023-07-20T03:33:26;19.40;99.90
64939;DHT22;51453;47.738;7.420;2023-07-20T03:35:53;19.40;99.90
64939;DHT22;51453;47.738;7.420;2023-07-20T03:38:19;19.40;99.90
64939;DHT22;51453;47.738;7.420;2023-07-20T03:41:00;19.40;99.90
64939;DHT22;51453;47.738;7.420;2023-07-20T03:43:27;19.50;99.90
64939;DHT22;51453;47.738;7.420;2023-07-20T03:45:54;19.50;99.90
64939;DHT22;51453;47.738;7.420;2023-07-20T03:48:21;19.50;99.90
64939;DHT22;51453;47.738;7.420;2023-07-20T03:50:50;19.40;99.90
64939;DHT22;51453;47.738;7.420;2023-07-20T03:53:16;19.40;99.90
64939;DHT22;51453;47.738;7.420;2023-07-20T03:55:48;19.40;99.90
64939;DHT22;51453;47.738;7.420;2023-07-20T03:58:14;19.40;99.90
64939;DHT22;51453;47.738;7.420;2023-07-20T04:00:43;19.30;99.90
64939;DHT22;51453;47.738;7.420;2023-07-20T04:03:08;19.30;99.90
64939;DHT22;51453;47.738;7.420;2023-07-20T04:05:34;19.30;99.90
64939;DHT22;51453;47.738;7.420;2023-07-20T04:07:59;19.30;99.90
64939;DHT22;51453;47.738;7.420;2023-07-20T04:10:25;19.30;99.90
64939;DHT22;51453;47.738;7.420;2023-07-20T04:12:50;19.30;99.90
64939;DHT22;51453;47.738;7.420;2023-07-20T04:15:16;19.30;99.90
64939;DHT22;51453;47.738;7.420;2023-07-20T04:17:42;19.30;99.90
64939;DHT22;51453;47.738;7.420;2023-07-20T04:20:08;19.30;99.90
64939;DHT22;51453;47.738;7.420;2023-07-20T04:22:34;19.30;99.90
64939;DHT22;51453;47.738;7.420;2023-07-20T04:24:59;19.40;99.90
64939;DHT22;51453;47.738;7.420;2023-07-20T04:27:25;19.40;99.90
64939;DHT22;51453;47.738;7.420;2023-07-20T04:29:52;19.40;99.90
64939;DHT22;51453;47.738;7.420;2023-07-20T04:32:17;19.40;99.90
64939;DHT22;51453;47.738;7.420;2023-07-20T04:34:43;19.50;99.90
64939;DHT22;51453;47.738;7.420;2023-07-20T04:37:09;19.60;99.90
64939;DHT22;51453;47.738;7.420;2023-07-20T04:39:34;19.70;99.90
64939;DHT22;51453;47.738;7.420;2023-07-20T04:42:00;19.80;99.90
64939;DHT22;51453;47.738;7.420;2023-07-20T04:44:25;20.00;99.90
64939;DHT22;51453;47.738;7.420;2023-07-20T04:46:51;20.20;99.90
64939;DHT22;51453;47.738;7.420;2023-07-20T04:49:17;20.40;99.90
64939;DHT22;51453;47.738;7.420;2023-07-20T04:51:42;20.40;99.90
64939;DHT22;51453;47.738;7.420;2023-07-20T04:54:08;20.40;99.90
64939;DHT22;51453;47.738;7.420;2023-07-20T04:56:33;20.20;99.90
64939;DHT22;51453;47.738;7.420;2023-07-20T04:58:59;20.20;99.90
64939;DHT22;51453;47.738;7.420;2023-07-20T05:01:25;20.40;99.90
64939;DHT22;51453;47.738;7.420;2023-07-20T05:03:52;20.60;99.90
64939;DHT22;51453;47.738;7.420;2023-07-20T05:06:18;20.90;99.90
64939;DHT22;51453;47.738;7.420;2023-07-20T05:08:44;21.30;99.90
64939;DHT22;51453;47.738;7.420;2023-07-20T05:11:10;21.40;99.90
64939;DHT22;51453;47.738;7.420;2023-07-20T05:13:36;21.50;99.90
64939;DHT22;51453;47.738;7.420;2023-07-20T05:16:02;21.80;99.90
64939;DHT22;51453;47.738;7.420;2023-07-20T05:18:27;22.00;99.90
64939;DHT22;51453;47.738;7.420;2023-07-20T05:20:53;22.20;99.90
64939;DHT22;51453;47.738;7.420;2023-07-20T05:23:20;22.30;99.90
64939;DHT22;51453;47.738;7.420;2023-07-20T05:25:47;22.40;99.90
64939;DHT22;51453;47.738;7.420;2023-07-20T05:28:12;22.30;99.90
64939;DHT22;51453;47.738;7.420;2023-07-20T05:30:39;22.40;99.90
64939;DHT22;51453;47.738;7.420;2023-07-20T05:33:05;22.30;99.90
64939;DHT22;51453;47.738;7.420;2023-07-20T05:35:30;22.20;99.90
64939;DHT22;51453;47.738;7.420;2023-07-20T05:37:56;22.40;99.90
64939;DHT22;51453;47.738;7.420;2023-07-20T05:40:22;22.70;99.90
64939;DHT22;51453;47.738;7.420;2023-07-20T05:42:48;23.00;99.90
64939;DHT22;51453;47.738;7.420;2023-07-20T05:45:17;23.00;99.90
64939;DHT22;51453;47.738;7.420;2023-07-20T05:47:43;22.90;99.90
64939;DHT22;51453;47.738;7.420;2023-07-20T05:50:10;22.70;99.90
64939;DHT22;51453;47.738;7.420;2023-07-20T05:52:36;22.60;99.90
64939;DHT22;51453;47.738;7.420;2023-07-20T05:55:04;22.50;99.90
64939;DHT22;51453;47.738;7.420;2023-07-20T05:57:30;22.60;99.90
64939;DHT22;51453;47.738;7.420;2023-07-20T05:59:56;22.70;99.90
64939;DHT22;51453;47.738;7.420;2023-07-20T06:02:21;22.50;99.90
64939;DHT22;51453;47.738;7.420;2023-07-20T06:04:47;22.60;99.90
64939;DHT22;51453;47.738;7.420;2023-07-20T06:07:12;22.50;99.90
64939;DHT22;51453;47.738;7.420;2023-07-20T06:09:38;22.50;99.90
64939;DHT22;51453;47.738;7.420;2023-07-20T06:12:04;22.40;99.90
64939;DHT22;51453;47.738;7.420;2023-07-20T06:14:30;22.30;99.90
64939;DHT22;51453;47.738;7.420;2023-07-20T06:16:55;22.20;99.90
64939;DHT22;51453;47.738;7.420;2023-07-20T06:19:21;22.10;99.90
64939;DHT22;51453;47.738;7.420;2023-07-20T06:21:48;22.20;99.90
64939;DHT22;51453;47.738;7.420;2023-07-20T06:24:15;22.20;99.90
64939;DHT22;51453;47.738;7.420;2023-07-20T06:26:41;22.30;99.90
64939;DHT22;51453;47.738;7.420;2023-07-20T06:29:06;22.30;99.90
64939;DHT22;51453;47.738;7.420;2023-07-20T06:31:33;22.30;99.90
64939;DHT22;51453;47.738;7.420;2023-07-20T06:33:59;22.30;99.90
64939;DHT22;51453;47.738;7.420;2023-07-20T06:36:24;22.20;99.90
64939;DHT22;51453;47.738;7.420;2023-07-20T06:38:51;22.30;99.90
64939;DHT22;51453;47.738;7.420;2023-07-20T06:41:17;22.40;99.90
64939;DHT22;51453;47.738;7.420;2023-07-20T06:43:43;22.30;99.90
64939;DHT22;51453;47.738;7.420;2023-07-20T06:46:09;22.30;99.90
64939;DHT22;51453;47.738;7.420;2023-07-20T06:48:34;22.40;99.90
64939;DHT22;51453;47.738;7.420;2023-07-20T06:51:00;22.70;99.90
64939;DHT22;51453;47.738;7.420;2023-07-20T06:53:25;22.90;99.90
64939;DHT22;51453;47.738;7.420;2023-07-20T06:55:51;23.10;99.90
64939;DHT22;51453;47.738;7.420;2023-07-20T06:58:17;23.10;99.90
64939;DHT22;51453;47.738;7.420;2023-07-20T07:00:43;23.00;99.90
64939;DHT22;51453;47.738;7.420;2023-07-20T07:03:10;23.00;99.90
64939;DHT22;51453;47.738;7.420;2023-07-20T07:05:36;23.10;99.90
64939;DHT22;51453;47.738;7.420;2023-07-20T07:08:05;23.10;99.90
64939;DHT22;51453;47.738;7.420;2023-07-20T07:10:32;23.00;99.90
64939;DHT22;51453;47.738;7.420;2023-07-20T07:12:57;22.90;99.90
64939;DHT22;51453;47.738;7.420;2023-07-20T07:15:23;22.70;99.90
64939;DHT22;51453;47.738;7.420;2023-07-20T07:17:48;22.60;99.90
64939;DHT22;51453;47.738;7.420;2023-07-20T07:20:15;22.50;99.90
64939;DHT22;51453;47.738;7.420;2023-07-20T07:22:40;22.50;99.90
64939;DHT22;51453;47.738;7.420;2023-07-20T07:25:10;22.70;99.90
64939;DHT22;51453;47.738;7.420;2023-07-20T07:27:36;23.00;99.90
64939;DHT22;51453;47.738;7.420;2023-07-20T07:30:03;23.30;99.90
64939;DHT22;51453;47.738;7.420;2023-07-20T07:32:29;23.40;99.90
64939;DHT22;51453;47.738;7.420;2023-07-20T07:34:54;23.50;99.90
64939;DHT22;51453;47.738;7.420;2023-07-20T07:37:20;23.70;99.90
64939;DHT22;51453;47.738;7.420;2023-07-20T07:39:46;23.80;99.90
64939;DHT22;51453;47.738;7.420;2023-07-20T07:42:12;23.80;99.90
64939;DHT22;51453;47.738;7.420;2023-07-20T07:44:38;23.60;99.90
64939;DHT22;51453;47.738;7.420;2023-07-20T07:47:04;23.40;99.90
64939;DHT22;51453;47.738;7.420;2023-07-20T07:49:31;23.40;99.90
64939;DHT22;51453;47.738;7.420;2023-07-20T07:51:57;23.40;99.90
64939;DHT22;51453;47.738;7.420;2023-07-20T07:54:22;23.60;99.90
64939;DHT22;51453;47.738;7.420;2023-07-20T07:56:48;23.70;99.90
64939;DHT22;51453;47.738;7.420;2023-07-20T07:59:14;23.70;99.90
64939;DHT22;51453;47.738;7.420;2023-07-20T08:01:39;23.90;99.90
64939;DHT22;51453;47.738;7.420;2023-07-20T08:04:05;24.00;99.90
64939;DHT22;51453;47.738;7.420;2023-07-20T08:06:31;24.10;99.90
64939;DHT22;51453;47.738;7.420;2023-07-20T08:08:57;24.20;99.90
64939;DHT22;51453;47.738;7.420;2023-07-20T08:11:23;24.30;99.90
64939;DHT22;51453;47.738;7.420;2023-07-20T08:13:49;24.30;99.90
64939;DHT22;51453;47.738;7.420;2023-07-20T08:16:14;24.40;99.90
64939;DHT22;51453;47.738;7.420;2023-07-20T08:18:40;24.40;99.90
64939;DHT22;51453;47.738;7.420;2023-07-20T08:21:06;24.40;99.90
64939;DHT22;51453;47.738;7.420;2023-07-20T08:23:31;24.40;99.90
64939;DHT22;51453;47.738;7.420;2023-07-20T08:25:57;24.40;99.90
64939;DHT22;51453;47.738;7.420;2023-07-20T08:28:23;24.40;99.90
64939;DHT22;51453;47.738;7.420;2023-07-20T08:30:49;24.40;99.90
64939;DHT22;51453;47.738;7.420;2023-07-20T08:33:16;24.40;99.90
64939;DHT22;51453;47.738;7.420;2023-07-20T08:35:43;24.40;99.90
64939;DHT22;51453;47.738;7.420;2023-07-20T08:38:09;24.40;99.90
64939;DHT22;51453;47.738;7.420;2023-07-20T08:40:40;24.40;99.90
64939;DHT22;51453;47.738;7.420;2023-07-20T08:43:06;24.40;99.90
64939;DHT22;51453;47.738;7.420;2023-07-20T08:45:36;24.50;99.90
64939;DHT22;51453;47.738;7.420;2023-07-20T08:48:05;24.50;99.90
64939;DHT22;51453;47.738;7.420;2023-07-20T08:50:32;24.40;99.90
64939;DHT22;51453;47.738;7.420;2023-07-20T08:52:58;24.30;99.90
64939;DHT22;51453;47.738;7.420;2023-07-20T08:55:27;24.40;99.90
64939;DHT22;51453;47.738;7.420;2023-07-20T08:57:55;24.50;99.90
64939;DHT22;51453;47.738;7.420;2023-07-20T09:00:21;24.40;99.90
64939;DHT22;51453;47.738;7.420;2023-07-20T09:02:49;24.40;99.90
64939;DHT22;51453;47.738;7.420;2023-07-20T09:05:16;24.30;99.90
64939;DHT22;51453;47.738;7.420;2023-07-20T09:07:42;24.20;99.90
64939;DHT22;51453;47.738;7.420;2023-07-20T09:10:08;24.00;99.90
64939;DHT22;51453;47.738;7.420;2023-07-20T09:12:42;24.00;99.90
64939;DHT22;51453;47.738;7.420;2023-07-20T09:15:09;23.90;99.90
64939;DHT22;51453;47.738;7.420;2023-07-20T09:17:35;23.80;99.90
64939;DHT22;51453;47.738;7.420;2023-07-20T09:20:03;23.80;99.90
64939;DHT22;51453;47.738;7.420;2023-07-20T09:22:33;23.80;99.90
64939;DHT22;51453;47.738;7.420;2023-07-20T09:24:59;23.80;99.90
64939;DHT22;51453;47.738;7.420;2023-07-20T09:27:45;23.80;99.90
64939;DHT22;51453;47.738;7.420;2023-07-20T09:30:11;23.80;99.90
64939;DHT22;51453;47.738;7.420;2023-07-20T09:32:48;23.90;99.90
64939;DHT22;51453;47.738;7.420;2023-07-20T09:35:17;24.00;99.90
64939;DHT22;51453;47.738;7.420;2023-07-20T09:38:01;24.00;99.90
64939;DHT22;51453;47.738;7.420;2023-07-20T09:40:28;24.20;99.90
64939;DHT22;51453;47.738;7.420;2023-07-20T09:42:54;24.40;99.90
64939;DHT22;51453;47.738;7.420;2023-07-20T09:45:49;24.60;99.90
64939;DHT22;51453;47.738;7.420;2023-07-20T09:48:15;24.80;99.90
64939;DHT22;51453;47.738;7.420;2023-07-20T09:50:42;24.90;99.90
64939;DHT22;51453;47.738;7.420;2023-07-20T09:53:12;25.00;99.90
64939;DHT22;51453;47.738;7.420;2023-07-20T09:55:41;25.10;99.90
64939;DHT22;51453;47.738;7.420;2023-07-20T09:58:09;25.20;99.90
64939;DHT22;51453;47.738;7.420;2023-07-20T10:00:36;25.10;99.90
64939;DHT22;51453;47.738;7.420;2023-07-20T10:03:04;25.10;99.90
64939;DHT22;51453;47.738;7.420;2023-07-20T10:05:33;25.10;99.90
64939;DHT22;51453;47.738;7.420;2023-07-20T10:08:03;25.20;99.90
64939;DHT22;51453;47.738;7.420;2023-07-20T10:10:32;25.40;99.90
64939;DHT22;51453;47.738;7.420;2023-07-20T10:12:59;25.50;99.90
64939;DHT22;51453;47.738;7.420;2023-07-20T10:15:36;25.60;99.90
64939;DHT22;51453;47.738;7.420;2023-07-20T10:18:46;25.70;99.90
64939;DHT22;51453;47.738;7.420;2023-07-20T10:21:16;25.70;99.90
64939;DHT22;51453;47.738;7.420;2023-07-20T10:23:43;25.80;99.90
64939;DHT22;51453;47.738;7.420;2023-07-20T10:26:09;25.80;99.90
64939;DHT22;51453;47.738;7.420;2023-07-20T10:28:36;25.70;99.90
64939;DHT22;51453;47.738;7.420;2023-07-20T10:31:02;25.80;99.90
64939;DHT22;51453;47.738;7.420;2023-07-20T10:33:29;25.90;99.90
64939;DHT22;51453;47.738;7.420;2023-07-20T10:36:05;26.00;99.90
64939;DHT22;51453;47.738;7.420;2023-07-20T10:38:53;26.00;99.90
64939;DHT22;51453;47.738;7.420;2023-07-20T10:41:34;26.10;99.90
64939;DHT22;51453;47.738;7.420;2023-07-20T10:44:20;26.00;99.90
64939;DHT22;51453;47.738;7.420;2023-07-20T10:46:46;26.10;99.90
64939;DHT22;51453;47.738;7.420;2023-07-20T10:49:13;26.20;99.90
64939;DHT22;51453;47.738;7.420;2023-07-20T10:51:44;26.30;99.90
64939;DHT22;51453;47.738;7.420;2023-07-20T10:56:57;26.30;99.90
64939;DHT22;51453;47.738;7.420;2023-07-20T11:01:50;26.40;99.90
64939;DHT22;51453;47.738;7.420;2023-07-20T11:04:16;26.60;99.90
64939;DHT22;51453;47.738;7.420;2023-07-20T11:06:54;26.50;99.90
64939;DHT22;51453;47.738;7.420;2023-07-20T11:09:22;26.40;99.90
64939;DHT22;51453;47.738;7.420;2023-07-20T11:11:51;26.20;99.90
64939;DHT22;51453;47.738;7.420;2023-07-20T11:14:34;26.10;99.90
64939;DHT22;51453;47.738;7.420;2023-07-20T11:17:14;26.20;99.90
64939;DHT22;51453;47.738;7.420;2023-07-20T11:19:40;26.20;99.90
64939;DHT22;51453;47.738;7.420;2023-07-20T11:22:09;26.20;99.90
64939;DHT22;51453;47.738;7.420;2023-07-20T11:24:41;26.30;99.90
64939;DHT22;51453;47.738;7.420;2023-07-20T11:27:07;26.50;99.90
64939;DHT22;51453;47.738;7.420;2023-07-20T11:29:35;26.50;99.90
64939;DHT22;51453;47.738;7.420;2023-07-20T11:32:01;26.60;99.90
64939;DHT22;51453;47.738;7.420;2023-07-20T11:34:31;26.80;99.90
64939;DHT22;51453;47.738;7.420;2023-07-20T11:36:57;26.80;99.90
64939;DHT22;51453;47.738;7.420;2023-07-20T11:39:23;26.90;99.90
64939;DHT22;51453;47.738;7.420;2023-07-20T11:41:55;27.00;99.90
64939;DHT22;51453;47.738;7.420;2023-07-20T11:44:28;26.90;99.90
64939;DHT22;51453;47.738;7.420;2023-07-20T11:47:10;27.00;99.90
64939;DHT22;51453;47.738;7.420;2023-07-20T11:49:39;27.10;99.90
64939;DHT22;51453;47.738;7.420;2023-07-20T11:52:11;27.10;99.90
64939;DHT22;51453;47.738;7.420;2023-07-20T11:54:39;27.10;99.90
64939;DHT22;51453;47.738;7.420;2023-07-20T11:57:05;27.10;99.90
64939;DHT22;51453;47.738;7.420;2023-07-20T11:59:32;27.10;99.90
64939;DHT22;51453;47.738;7.420;2023-07-20T12:02:01;27.10;99.90
64939;DHT22;51453;47.738;7.420;2023-07-20T12:04:27;27.00;99.90
64939;DHT22;51453;47.738;7.420;2023-07-20T12:06:54;27.00;99.90
64939;DHT22;51453;47.738;7.420;2023-07-20T12:09:20;27.10;99.90
64939;DHT22;51453;47.738;7.420;2023-07-20T12:11:49;27.10;99.90
64939;DHT22;51453;47.738;7.420;2023-07-20T12:14:15;27.20;99.90
64939;DHT22;51453;47.738;7.420;2023-07-20T12:16:41;27.20;99.90
64939;DHT22;51453;47.738;7.420;2023-07-20T12:19:11;27.10;99.90
64939;DHT22;51453;47.738;7.420;2023-07-20T12:21:39;27.20;99.90
64939;DHT22;51453;47.738;7.420;2023-07-20T12:24:06;27.10;99.90
64939;DHT22;51453;47.738;7.420;2023-07-20T12:26:33;27.20;99.90
64939;DHT22;51453;47.738;7.420;2023-07-20T12:28:59;27.20;99.90
64939;DHT22;51453;47.738;7.420;2023-07-20T12:31:26;27.20;99.90
64939;DHT22;51453;47.738;7.420;2023-07-20T12:33:52;27.30;99.90
64939;DHT22;51453;47.738;7.420;2023-07-20T12:36:18;27.30;99.90
64939;DHT22;51453;47.738;7.420;2023-07-20T12:38:44;27.30;99.90
64939;DHT22;51453;47.738;7.420;2023-07-20T12:41:12;27.30;99.90
64939;DHT22;51453;47.738;7.420;2023-07-20T12:43:41;27.30;99.90
64939;DHT22;51453;47.738;7.420;2023-07-20T12:46:08;27.20;99.90
64939;DHT22;51453;47.738;7.420;2023-07-20T12:48:34;27.10;99.90
64939;DHT22;51453;47.738;7.420;2023-07-20T12:51:02;27.10;99.90
64939;DHT22;51453;47.738;7.420;2023-07-20T12:53:28;27.20;99.90
64939;DHT22;51453;47.738;7.420;2023-07-20T12:55:54;27.20;99.90
64939;DHT22;51453;47.738;7.420;2023-07-20T12:58:20;27.30;99.90
64939;DHT22;51453;47.738;7.420;2023-07-20T13:00:45;27.40;99.90
64939;DHT22;51453;47.738;7.420;2023-07-20T13:03:11;27.30;99.90
64939;DHT22;51453;47.738;7.420;2023-07-20T13:05:37;27.40;99.90
64939;DHT22;51453;47.738;7.420;2023-07-20T13:08:02;27.40;99.90
64939;DHT22;51453;47.738;7.420;2023-07-20T13:10:28;27.40;99.90
64939;DHT22;51453;47.738;7.420;2023-07-20T13:12:54;27.40;99.90
64939;DHT22;51453;47.738;7.420;2023-07-20T13:15:20;27.40;99.90
64939;DHT22;51453;47.738;7.420;2023-07-20T13:17:46;27.40;99.90
64939;DHT22;51453;47.738;7.420;2023-07-20T13:20:12;27.50;99.90
64939;DHT22;51453;47.738;7.420;2023-07-20T13:22:38;27.60;99.90
64939;DHT22;51453;47.738;7.420;2023-07-20T13:25:04;27.60;99.90
64939;DHT22;51453;47.738;7.420;2023-07-20T13:27:30;27.60;99.90
64939;DHT22;51453;47.738;7.420;2023-07-20T13:29:57;27.70;99.90
64939;DHT22;51453;47.738;7.420;2023-07-20T13:32:23;27.70;99.90
64939;DHT22;51453;47.738;7.420;2023-07-20T13:34:48;27.90;99.90
64939;DHT22;51453;47.738;7.420;2023-07-20T13:37:14;27.90;99.90
64939;DHT22;51453;47.738;7.420;2023-07-20T13:39:41;27.90;99.90
64939;DHT22;51453;47.738;7.420;2023-07-20T13:42:07;27.90;99.90
64939;DHT22;51453;47.738;7.420;2023-07-20T13:44:34;27.90;99.90
64939;DHT22;51453;47.738;7.420;2023-07-20T13:47:01;27.90;99.90
64939;DHT22;51453;47.738;7.420;2023-07-20T13:49:27;27.80;99.90
64939;DHT22;51453;47.738;7.420;2023-07-20T13:51:53;27.70;99.90
64939;DHT22;51453;47.738;7.420;2023-07-20T13:54:19;27.60;99.90
64939;DHT22;51453;47.738;7.420;2023-07-20T13:56:44;27.60;99.90
64939;DHT22;51453;47.738;7.420;2023-07-20T13:59:10;27.60;99.90
64939;DHT22;51453;47.738;7.420;2023-07-20T14:01:35;27.60;99.90
64939;DHT22;51453;47.738;7.420;2023-07-20T14:04:02;27.40;99.90
64939;DHT22;51453;47.738;7.420;2023-07-20T14:06:30;27.50;99.90
64939;DHT22;51453;47.738;7.420;2023-07-20T14:08:56;27.70;99.90
64939;DHT22;51453;47.738;7.420;2023-07-20T14:11:23;27.80;99.90
64939;DHT22;51453;47.738;7.420;2023-07-20T14:13:49;27.90;99.90
64939;DHT22;51453;47.738;7.420;2023-07-20T14:16:15;28.00;99.90
64939;DHT22;51453;47.738;7.420;2023-07-20T14:18:40;28.00;99.90
64939;DHT22;51453;47.738;7.420;2023-07-20T14:21:07;28.00;99.90
64939;DHT22;51453;47.738;7.420;2023-07-20T14:23:33;28.00;99.90
64939;DHT22;51453;47.738;7.420;2023-07-20T14:25:59;27.80;99.90
64939;DHT22;51453;47.738;7.420;2023-07-20T14:28:25;27.80;99.90
64939;DHT22;51453;47.738;7.420;2023-07-20T14:30:50;27.80;99.90
64939;DHT22;51453;47.738;7.420;2023-07-20T14:33:16;27.80;99.90
64939;DHT22;51453;47.738;7.420;2023-07-20T14:35:42;27.80;99.90
64939;DHT22;51453;47.738;7.420;2023-07-20T14:38:07;27.90;99.90
64939;DHT22;51453;47.738;7.420;2023-07-20T14:40:33;27.90;99.90
64939;DHT22;51453;47.738;7.420;2023-07-20T14:42:59;27.90;99.90
64939;DHT22;51453;47.738;7.420;2023-07-20T14:45:30;27.90;99.90
64939;DHT22;51453;47.738;7.420;2023-07-20T14:47:56;27.90;99.90
64939;DHT22;51453;47.738;7.420;2023-07-20T14:50:21;27.90;99.90
64939;DHT22;51453;47.738;7.420;2023-07-20T14:52:47;27.90;99.90
64939;DHT22;51453;47.738;7.420;2023-07-20T14:55:13;28.00;99.90
64939;DHT22;51453;47.738;7.420;2023-07-20T14:57:39;28.00;99.90
64939;DHT22;51453;47.738;7.420;2023-07-20T15:00:05;28.10;99.90
64939;DHT22;51453;47.738;7.420;2023-07-20T15:02:33;28.10;99.90
64939;DHT22;51453;47.738;7.420;2023-07-20T15:04:59;28.10;99.90
64939;DHT22;51453;47.738;7.420;2023-07-20T15:07:25;28.10;99.90
64939;DHT22;51453;47.738;7.420;2023-07-20T15:09:51;28.20;99.90
64939;DHT22;51453;47.738;7.420;2023-07-20T15:12:17;28.20;99.90
64939;DHT22;51453;47.738;7.420;2023-07-20T15:14:43;28.10;99.90
64939;DHT22;51453;47.738;7.420;2023-07-20T15:17:10;28.00;99.90
64939;DHT22;51453;47.738;7.420;2023-07-20T15:19:36;28.00;99.90
64939;DHT22;51453;47.738;7.420;2023-07-20T15:22:04;28.00;99.90
64939;DHT22;51453;47.738;7.420;2023-07-20T15:24:31;27.90;99.90
64939;DHT22;51453;47.738;7.420;2023-07-20T15:26:56;27.90;99.90
64939;DHT22;51453;47.738;7.420;2023-07-20T15:29:23;27.90;99.90
64939;DHT22;51453;47.738;7.420;2023-07-20T15:31:49;28.00;99.90
64939;DHT22;51453;47.738;7.420;2023-07-20T15:34:14;28.00;99.90
64939;DHT22;51453;47.738;7.420;2023-07-20T15:36:41;28.10;99.90
64939;DHT22;51453;47.738;7.420;2023-07-20T15:39:08;28.10;99.90
64939;DHT22;51453;47.738;7.420;2023-07-20T15:41:33;28.30;99.90
64939;DHT22;51453;47.738;7.420;2023-07-20T15:44:00;28.30;99.90